Greybull, Wyoming
Current Conditions -  °F | °C
As of 4:53 AM on Thursday 18 Dec 2014 (Local Time) from KGEY Reporting Station
Clear Clear  
Wind Chill:   Ceiling: Unl
Heat Index:   Visibility: 10mi
Dew Point:   Wind: 5mph
Humidity: 92%   Direction: 190°S
Pressure: 30.04"   Gusts: NA
Location:  44.49°N, 108.06°W
Report Text: KGEY 181153Z AUTO 19004KT 10SM CLR M13/M14 A3004 RMK AO2 SLP231 T11331144 11111 21139 51007
Loading
Personal Weather Stations






























Interactive Weather Map New forecast layout! Learn more

10-Day Weather Forecast

Advertisements
Track Severe Weather on mobile